Time;durP1;ratioP1;P1;durP2;ratioP2;P2;SDS_P1;SDS_P2;PMS_P1;PMS_P2;Temp;Humidity;BMP_temperature;BMP_pressure;BME280_temperature;BME280_humidity;BME280_pressure;Samples;Min_cycle;Max_cycle;Signal;HPM_P1;HPM_P2
2022/01/19 00:00:22;;;;;;;49.93;21.83;;;;;;;;;;4992518;28;20186;-70
2022/01/19 00:02:47;;;;;;;47.40;22.93;;;;;;;;;;4963274;28;20739;-69
2022/01/19 00:05:13;;;;;;;49.67;22.63;;;;;;;;;;4974070;28;20226;-69
2022/01/19 00:07:38;;;;;;;56.97;23.37;;;;;;;;;;4990133;28;20179;-70
2022/01/19 00:10:09;;;;;;;56.20;22.20;;;;;;;;;;4988508;28;20179;-69
2022/01/19 00:12:34;;;;;;;64.80;24.20;;;;;;;;;;4988330;28;20191;-70
2022/01/19 00:14:59;;;;;;;66.97;24.77;;;;;;;;;;4991937;28;20190;-71
2022/01/19 00:17:25;;;;;;;70.90;26.20;;;;;;;;;;4991539;28;20234;-70
2022/01/19 00:19:50;;;;;;;67.40;26.27;;;;;;;;;;4988234;28;20233;-70
2022/01/19 00:22:15;;;;;;;59.43;23.70;;;;;;;;;;4990357;28;20752;-72
2022/01/19 00:24:41;;;;;;;58.23;25.90;;;;;;;;;;4989000;28;20199;-72
2022/01/19 00:27:06;;;;;;;62.43;26.03;;;;;;;;;;4989016;28;20176;-71
2022/01/19 00:29:31;;;;;;;61.30;24.23;;;;;;;;;;4988006;28;20195;-69
2022/01/19 00:31:57;;;;;;;66.17;24.07;;;;;;;;;;4990111;28;20202;-69
2022/01/19 00:34:22;;;;;;;67.70;26.27;;;;;;;;;;4991053;28;20269;-70
2022/01/19 00:36:47;;;;;;;67.53;26.13;;;;;;;;;;4991222;28;20685;-70
2022/01/19 00:39:12;;;;;;;72.30;27.23;;;;;;;;;;4991808;28;20226;-71
2022/01/19 00:41:37;;;;;;;67.70;26.13;;;;;;;;;;4991744;28;20532;-70
2022/01/19 00:44:03;;;;;;;78.93;27.30;;;;;;;;;;4992764;28;20590;-70
2022/01/19 00:46:28;;;;;;;72.40;28.27;;;;;;;;;;4992520;28;20195;-70
2022/01/19 00:48:53;;;;;;;67.13;25.10;;;;;;;;;;4980461;28;20184;-70
2022/01/19 00:51:18;;;;;;;64.43;24.73;;;;;;;;;;5008383;22;20204;-73
2022/01/19 00:53:44;;;;;;;67.27;25.23;;;;;;;;;;5044768;28;20235;-72
2022/01/19 00:56:09;;;;;;;63.20;24.20;;;;;;;;;;5034121;28;20196;-69
2022/01/19 00:58:34;;;;;;;60.67;26.20;;;;;;;;;;5044182;28;20205;-72
2022/01/19 01:00:59;;;;;;;62.73;23.83;;;;;;;;;;5045133;28;20649;-72
2022/01/19 01:03:24;;;;;;;55.57;22.67;;;;;;;;;;5049114;28;20509;-71
2022/01/19 01:05:50;;;;;;;62.97;23.20;;;;;;;;;;5030683;28;20209;-71
2022/01/19 01:08:15;;;;;;;57.33;22.97;;;;;;;;;;5042968;28;20212;-71
2022/01/19 01:10:42;;;;;;;61.27;24.77;;;;;;;;;;5045231;28;20283;-71
2022/01/19 01:15:24;;;;;;;73.27;25.60;;;;;;;;;;5028945;28;20233;-71
2022/01/19 01:16:17;;;;;;;60.10;21.67;;;;;;;;;;5044224;28;20678;-71
2022/01/19 01:18:42;;;;;;;63.73;22.80;;;;;;;;;;5031062;28;20601;-71
2022/01/19 01:21:07;;;;;;;60.93;22.47;;;;;;;;;;5031589;28;20287;-72
2022/01/19 01:23:35;;;;;;;76.73;26.27;;;;;;;;;;5048328;28;20252;-71
2022/01/19 01:26:00;;;;;;;62.10;25.33;;;;;;;;;;5048758;28;20233;-71
2022/01/19 01:28:25;;;;;;;64.33;24.77;;;;;;;;;;5049257;28;20213;-71
2022/01/19 01:30:51;;;;;;;65.43;23.90;;;;;;;;;;5050631;28;20545;-71
2022/01/19 01:33:16;;;;;;;58.00;22.73;;;;;;;;;;5045929;28;20197;-71
2022/01/19 01:35:42;;;;;;;72.30;24.03;;;;;;;;;;5051650;28;20174;-71
2022/01/19 01:38:07;;;;;;;68.37;24.43;;;;;;;;;;5045647;28;20175;-70
2022/01/19 01:40:34;;;;;;;66.63;25.20;;;;;;;;;;5042672;28;20208;-72
2022/01/19 01:42:59;;;;;;;78.10;27.03;;;;;;;;;;5048265;28;20201;-71
2022/01/19 01:45:29;;;;;;;65.73;23.23;;;;;;;;;;5043218;28;20210;-72
2022/01/19 01:48:04;;;;;;;54.47;23.23;;;;;;;;;;5032344;28;20184;-71
2022/01/19 01:53:28;;;;;;;57.00;21.80;;;;;;;;;;5050199;28;20291;-71
2022/01/19 01:55:58;;;;;;;64.93;23.73;;;;;;;;;;5045392;28;20627;-71
2022/01/19 01:58:24;;;;;;;73.60;25.10;;;;;;;;;;5047952;28;20240;-71
2022/01/19 02:00:49;;;;;;;62.13;23.60;;;;;;;;;;5047168;28;20578;-71
2022/01/19 02:03:14;;;;;;;77.60;26.53;;;;;;;;;;5048814;28;20565;-70
2022/01/19 02:05:53;;;;;;;83.13;26.90;;;;;;;;;;5026318;28;20205;-72
2022/01/19 02:08:22;;;;;;;81.57;28.57;;;;;;;;;;5030266;28;20221;-71
2022/01/19 02:21:44;;;;;;;70.33;25.27;;;;;;;;;;5045570;28;20604;-70
2022/01/19 02:24:13;;;;;;;80.53;29.23;;;;;;;;;;5030978;28;20203;-70
2022/01/19 02:40:18;;;;;;;72.17;27.53;;;;;;;;;;5043782;28;20185;-72
2022/01/19 02:43:06;;;;;;;70.77;24.90;;;;;;;;;;5045459;28;20204;-72
2022/01/19 02:51:00;;;;;;;90.97;30.73;;;;;;;;;;5043464;28;20243;-72
2022/01/19 02:53:25;;;;;;;61.03;25.90;;;;;;;;;;5029174;28;20194;-72
2022/01/19 02:55:50;;;;;;;67.53;24.33;;;;;;;;;;5048404;28;20177;-72
2022/01/19 02:58:19;;;;;;;78.50;26.47;;;;;;;;;;5025265;28;20178;-72
2022/01/19 03:11:08;;;;;;;76.17;28.87;;;;;;;;;;5039872;28;20269;-72
2022/01/19 03:13:33;;;;;;;88.07;29.10;;;;;;;;;;5044825;28;20173;-70
2022/01/19 03:15:58;;;;;;;98.40;28.70;;;;;;;;;;5047816;28;20236;-72
2022/01/19 03:18:24;;;;;;;74.57;27.23;;;;;;;;;;5045685;28;20198;-72
2022/01/19 03:20:49;;;;;;;80.10;27.00;;;;;;;;;;5040535;28;20233;-69
2022/01/19 03:23:20;;;;;;;68.97;27.87;;;;;;;;;;5048112;28;20579;-72
2022/01/19 03:25:49;;;;;;;84.63;29.13;;;;;;;;;;5047194;28;20201;-72
2022/01/19 03:28:15;;;;;;;70.70;26.90;;;;;;;;;;5044902;28;20169;-72
2022/01/19 03:30:40;;;;;;;73.27;27.73;;;;;;;;;;5045013;28;20270;-72
2022/01/19 03:33:05;;;;;;;75.97;26.30;;;;;;;;;;5029664;28;20674;-71
2022/01/19 03:35:30;;;;;;;74.30;25.50;;;;;;;;;;5048362;28;20181;-71
2022/01/19 03:37:56;;;;;;;71.93;26.23;;;;;;;;;;5048618;28;20180;-71
2022/01/19 03:40:22;;;;;;;71.60;27.83;;;;;;;;;;5047682;28;20244;-71
2022/01/19 03:42:47;;;;;;;83.27;27.43;;;;;;;;;;5027517;28;20197;-72
2022/01/19 03:45:13;;;;;;;69.27;25.60;;;;;;;;;;5046506;28;20304;-72
2022/01/19 03:47:51;;;;;;;75.63;24.70;;;;;;;;;;5033003;28;20178;-72
2022/01/19 03:50:16;;;;;;;64.53;24.50;;;;;;;;;;5050378;28;20557;-72
2022/01/19 03:52:41;;;;;;;71.40;25.27;;;;;;;;;;5049955;28;20205;-72
2022/01/19 03:55:08;;;;;;;78.57;28.43;;;;;;;;;;5049086;28;20184;-71
2022/01/19 03:57:33;;;;;;;68.53;25.60;;;;;;;;;;5051996;28;20174;-70
2022/01/19 03:59:58;;;;;;;72.50;27.07;;;;;;;;;;5052027;28;20197;-70
2022/01/19 04:02:24;;;;;;;87.20;27.80;;;;;;;;;;5033891;28;20206;-70
2022/01/19 04:04:55;;;;;;;83.20;29.23;;;;;;;;;;5049209;28;20239;-70
2022/01/19 04:07:21;;;;;;;65.67;26.43;;;;;;;;;;5051880;28;20193;-72
2022/01/19 04:09:47;;;;;;;90.33;27.90;;;;;;;;;;5049419;28;20180;-70
2022/01/19 04:12:16;;;;;;;86.53;30.57;;;;;;;;;;5030875;28;20205;-70
2022/01/19 04:14:42;;;;;;;77.03;28.63;;;;;;;;;;5052311;28;20190;-70
2022/01/19 04:17:08;;;;;;;97.53;30.97;;;;;;;;;;5049271;28;20268;-70
2022/01/19 04:22:03;;;;;;;86.83;29.67;;;;;;;;;;5050346;28;20717;-71
2022/01/19 04:24:29;;;;;;;104.73;31.67;;;;;;;;;;5051010;28;20293;-70
2022/01/19 04:29:39;;;;;;;102.43;33.93;;;;;;;;;;5051519;28;20205;-70
2022/01/19 04:32:10;;;;;;;108.83;34.73;;;;;;;;;;5051402;28;20201;-70
2022/01/19 04:34:39;;;;;;;98.33;31.50;;;;;;;;;;5050139;28;20188;-70
2022/01/19 05:06:42;;;;;;;105.60;36.57;;;;;;;;;;5050782;28;20212;-71
2022/01/19 05:09:58;;;;;;;118.97;36.80;;;;;;;;;;5050552;28;20173;-71
2022/01/19 05:14:39;;;;;;;122.37;36.90;;;;;;;;;;5039400;28;20240;-70
2022/01/19 05:17:04;;;;;;;186.37;45.87;;;;;;;;;;5051319;28;20201;-71
2022/01/19 05:19:30;;;;;;;225.30;51.13;;;;;;;;;;5049116;28;20260;-70
2022/01/19 05:21:55;;;;;;;152.53;39.13;;;;;;;;;;5032639;28;20209;-72
2022/01/19 05:24:20;;;;;;;122.67;35.23;;;;;;;;;;5048614;28;20205;-71
2022/01/19 05:26:46;;;;;;;147.60;40.60;;;;;;;;;;5051566;28;20172;-71
2022/01/19 05:29:11;;;;;;;186.23;42.87;;;;;;;;;;5047738;28;20477;-71
2022/01/19 05:31:37;;;;;;;182.27;36.90;;;;;;;;;;5051453;28;20196;-71
2022/01/19 05:34:02;;;;;;;157.20;34.70;;;;;;;;;;5029948;28;20179;-71
2022/01/19 05:36:27;;;;;;;225.97;41.60;;;;;;;;;;5031214;28;20273;-71
2022/01/19 05:38:52;;;;;;;171.10;36.67;;;;;;;;;;5047622;28;20174;-71
2022/01/19 05:41:18;;;;;;;240.13;39.10;;;;;;;;;;5046911;28;20193;-71
2022/01/19 05:43:43;;;;;;;341.67;53.23;;;;;;;;;;5048522;28;20166;-71
2022/01/19 05:46:08;;;;;;;192.13;41.17;;;;;;;;;;5050166;28;20197;-71
2022/01/19 05:48:33;;;;;;;132.67;32.63;;;;;;;;;;5048925;28;20181;-71
2022/01/19 05:50:58;;;;;;;111.07;28.27;;;;;;;;;;5051585;28;20252;-71
2022/01/19 05:53:23;;;;;;;95.00;27.97;;;;;;;;;;5048235;28;20268;-71
2022/01/19 05:55:49;;;;;;;98.13;29.90;;;;;;;;;;5049383;28;20236;-71
2022/01/19 05:58:14;;;;;;;151.73;40.03;;;;;;;;;;5032324;28;20182;-71
2022/01/19 06:00:39;;;;;;;146.40;36.43;;;;;;;;;;5048644;28;20177;-71
2022/01/19 06:03:04;;;;;;;83.93;29.80;;;;;;;;;;5049726;28;20545;-71
2022/01/19 06:05:30;;;;;;;77.47;28.10;;;;;;;;;;5047468;28;20201;-70
2022/01/19 06:08:11;;;;;;;71.70;27.53;;;;;;;;;;5048522;28;20243;-72
2022/01/19 06:10:42;;;;;;;78.40;28.73;;;;;;;;;;5049098;28;20173;-72
2022/01/19 06:13:07;;;;;;;63.63;26.60;;;;;;;;;;5035195;28;20250;-71
2022/01/19 06:15:33;;;;;;;57.27;25.83;;;;;;;;;;5033333;28;20185;-73
2022/01/19 06:17:58;;;;;;;63.23;27.63;;;;;;;;;;5042896;28;20561;-71
2022/01/19 06:20:23;;;;;;;58.00;25.77;;;;;;;;;;5048240;28;20189;-71
2022/01/19 06:22:48;;;;;;;53.57;27.30;;;;;;;;;;5048197;28;20193;-71
2022/01/19 06:25:14;;;;;;;56.70;26.17;;;;;;;;;;5047194;28;20205;-71
2022/01/19 06:27:39;;;;;;;62.93;25.50;;;;;;;;;;5029716;28;20177;-72
2022/01/19 06:30:05;;;;;;;55.53;26.57;;;;;;;;;;5044936;28;20184;-71
2022/01/19 06:32:30;;;;;;;54.07;25.20;;;;;;;;;;5048038;28;20286;-72
2022/01/19 06:34:55;;;;;;;57.87;25.70;;;;;;;;;;5030323;28;20228;-71
2022/01/19 06:37:20;;;;;;;62.80;28.73;;;;;;;;;;5049490;28;20192;-71
2022/01/19 06:39:46;;;;;;;63.03;28.50;;;;;;;;;;5025669;28;20186;-72
2022/01/19 06:42:11;;;;;;;55.67;26.50;;;;;;;;;;5047598;28;20209;-72
2022/01/19 06:44:36;;;;;;;68.60;27.60;;;;;;;;;;5029528;28;22445;-71
2022/01/19 06:47:01;;;;;;;59.63;28.47;;;;;;;;;;5047897;28;20260;-71
2022/01/19 06:49:27;;;;;;;63.83;28.33;;;;;;;;;;5030084;28;20180;-71
2022/01/19 06:51:52;;;;;;;71.67;30.50;;;;;;;;;;5060425;22;20226;-69
2022/01/19 06:54:17;;;;;;;66.70;30.67;;;;;;;;;;5030580;28;20173;-70
2022/01/19 06:56:42;;;;;;;79.40;32.17;;;;;;;;;;5045762;28;20174;-72
2022/01/19 06:59:07;;;;;;;67.80;32.03;;;;;;;;;;5049263;28;20503;-70
2022/01/19 07:01:33;;;;;;;74.43;33.40;;;;;;;;;;5046109;28;20210;-69
2022/01/19 07:03:59;;;;;;;74.10;32.53;;;;;;;;;;5046822;28;20185;-69
2022/01/19 07:06:24;;;;;;;76.53;31.63;;;;;;;;;;5049156;28;20623;-69
2022/01/19 07:08:49;;;;;;;75.10;31.83;;;;;;;;;;5048707;28;20173;-70
2022/01/19 07:11:15;;;;;;;73.90;31.83;;;;;;;;;;5049003;28;20275;-71
2022/01/19 07:13:40;;;;;;;72.93;31.43;;;;;;;;;;5048387;28;20189;-69
2022/01/19 07:16:05;;;;;;;79.10;32.40;;;;;;;;;;5049270;28;20182;-69
2022/01/19 07:18:30;;;;;;;78.03;31.93;;;;;;;;;;5042352;28;20181;-71
2022/01/19 07:20:55;;;;;;;89.00;34.87;;;;;;;;;;5050421;28;20603;-68
2022/01/19 07:23:21;;;;;;;80.57;34.23;;;;;;;;;;5048509;28;20228;-72
2022/01/19 07:25:46;;;;;;;81.80;34.37;;;;;;;;;;5050939;28;20304;-69
2022/01/19 07:28:11;;;;;;;84.87;35.10;;;;;;;;;;5051522;28;20643;-70
2022/01/19 07:30:37;;;;;;;92.83;37.37;;;;;;;;;;5052963;28;20208;-69
2022/01/19 07:33:02;;;;;;;88.80;37.87;;;;;;;;;;5034768;28;20212;-70
2022/01/19 07:35:27;;;;;;;97.13;38.73;;;;;;;;;;5051174;28;20583;-70
2022/01/19 07:37:53;;;;;;;95.47;36.40;;;;;;;;;;5049515;28;20217;-69
2022/01/19 07:40:18;;;;;;;98.60;40.10;;;;;;;;;;5046419;28;20678;-69
2022/01/19 07:42:43;;;;;;;97.40;37.33;;;;;;;;;;5043046;28;20275;-70
2022/01/19 07:45:09;;;;;;;94.27;37.03;;;;;;;;;;5049523;28;20209;-69
2022/01/19 07:47:34;;;;;;;102.27;38.67;;;;;;;;;;5050231;28;20181;-69
2022/01/19 07:49:59;;;;;;;95.13;39.10;;;;;;;;;;5052460;28;20173;-69
2022/01/19 07:52:25;;;;;;;88.53;37.90;;;;;;;;;;5051958;28;20282;-69
2022/01/19 07:54:51;;;;;;;90.87;36.83;;;;;;;;;;5050484;28;20581;-69
2022/01/19 07:57:16;;;;;;;92.57;38.40;;;;;;;;;;5058044;28;20178;-68
2022/01/19 07:59:41;;;;;;;90.97;36.80;;;;;;;;;;5069941;28;20185;-69
2022/01/19 08:02:07;;;;;;;96.03;37.10;;;;;;;;;;5045500;28;20197;-69
2022/01/19 08:04:32;;;;;;;91.47;36.20;;;;;;;;;;5049255;28;20224;-70
2022/01/19 08:06:57;;;;;;;80.23;37.37;;;;;;;;;;5050153;28;20308;-70
2022/01/19 08:09:24;;;;;;;91.60;39.43;;;;;;;;;;5051472;28;20200;-69
2022/01/19 08:11:50;;;;;;;93.17;38.00;;;;;;;;;;5050123;28;20193;-69
2022/01/19 08:14:16;;;;;;;90.73;37.77;;;;;;;;;;5050460;28;20193;-69
2022/01/19 08:16:41;;;;;;;87.30;37.00;;;;;;;;;;5051145;28;20178;-68
2022/01/19 08:19:06;;;;;;;85.20;38.53;;;;;;;;;;5051785;28;20182;-70
2022/01/19 08:21:31;;;;;;;84.10;36.07;;;;;;;;;;5050310;28;20582;-69
2022/01/19 08:23:56;;;;;;;88.60;37.40;;;;;;;;;;5049356;28;20186;-69
2022/01/19 08:26:22;;;;;;;87.00;36.87;;;;;;;;;;5052044;28;20184;-69
2022/01/19 08:28:47;;;;;;;86.50;38.63;;;;;;;;;;5049875;28;20178;-68
2022/01/19 08:31:12;;;;;;;90.90;37.50;;;;;;;;;;5051188;28;20185;-70
2022/01/19 08:33:37;;;;;;;85.10;34.63;;;;;;;;;;5051649;28;20254;-70
2022/01/19 08:36:02;;;;;;;80.67;36.80;;;;;;;;;;5043406;28;20575;-69
2022/01/19 08:38:28;;;;;;;80.37;37.30;;;;;;;;;;5046608;28;20388;-70
2022/01/19 08:40:53;;;;;;;78.50;36.70;;;;;;;;;;5046530;28;20178;-69
2022/01/19 08:43:18;;;;;;;77.33;35.17;;;;;;;;;;5045492;28;20236;-70
2022/01/19 08:45:44;;;;;;;81.90;33.13;;;;;;;;;;5039337;28;20197;-69
2022/01/19 08:48:09;;;;;;;85.50;36.80;;;;;;;;;;5048414;28;20555;-69
2022/01/19 08:50:34;;;;;;;71.33;33.00;;;;;;;;;;5048000;28;20607;-70
2022/01/19 08:53:00;;;;;;;76.00;35.60;;;;;;;;;;5044626;28;20659;-69
2022/01/19 08:55:25;;;;;;;77.83;35.20;;;;;;;;;;5047951;28;20186;-69
2022/01/19 08:57:51;;;;;;;69.90;34.00;;;;;;;;;;5050188;28;20197;-69
2022/01/19 09:00:17;;;;;;;81.30;35.27;;;;;;;;;;5048504;28;20189;-68
2022/01/19 09:02:42;;;;;;;84.33;38.63;;;;;;;;;;5045504;28;20198;-69
2022/01/19 09:05:07;;;;;;;73.53;35.10;;;;;;;;;;5043089;28;20201;-69
2022/01/19 09:07:33;;;;;;;80.63;33.43;;;;;;;;;;5049573;28;20178;-70
2022/01/19 09:09:58;;;;;;;74.97;37.77;;;;;;;;;;5049049;28;20273;-70
2022/01/19 09:12:24;;;;;;;79.93;35.53;;;;;;;;;;5049176;28;20205;-69
2022/01/19 09:14:49;;;;;;;86.40;36.67;;;;;;;;;;5049704;28;20188;-70
2022/01/19 09:17:15;;;;;;;88.03;36.63;;;;;;;;;;5049349;28;20182;-69
2022/01/19 09:19:40;;;;;;;89.30;37.40;;;;;;;;;;5049454;28;20251;-70
2022/01/19 09:22:06;;;;;;;84.73;37.70;;;;;;;;;;5047958;28;20305;-69
2022/01/19 09:24:32;;;;;;;74.93;36.47;;;;;;;;;;5036307;28;20293;-70
2022/01/19 09:26:57;;;;;;;74.33;38.53;;;;;;;;;;5049871;28;20623;-70
2022/01/19 09:29:22;;;;;;;76.80;36.80;;;;;;;;;;5045838;28;20186;-69
2022/01/19 09:31:48;;;;;;;79.57;37.53;;;;;;;;;;5043990;28;20202;-69
2022/01/19 09:34:20;;;;;;;75.20;36.43;;;;;;;;;;5048142;28;20604;-69
2022/01/19 09:36:46;;;;;;;79.93;35.50;;;;;;;;;;5047564;28;20173;-69
2022/01/19 09:39:13;;;;;;;77.30;37.20;;;;;;;;;;5046344;28;20253;-69
2022/01/19 09:41:39;;;;;;;76.63;34.63;;;;;;;;;;5046170;28;20587;-69
2022/01/19 09:44:04;;;;;;;70.73;34.93;;;;;;;;;;5044087;28;20178;-69
2022/01/19 09:46:29;;;;;;;78.03;35.00;;;;;;;;;;5048261;28;20192;-69
2022/01/19 09:48:55;;;;;;;66.57;35.07;;;;;;;;;;5049276;28;20177;-71
2022/01/19 09:51:21;;;;;;;72.87;34.13;;;;;;;;;;5052552;28;20185;-69
2022/01/19 09:53:47;;;;;;;68.60;32.10;;;;;;;;;;5048212;28;20185;-71
2022/01/19 09:56:14;;;;;;;64.80;31.70;;;;;;;;;;5049174;28;20252;-72
2022/01/19 09:58:39;;;;;;;61.37;32.00;;;;;;;;;;5027376;28;20182;-70
2022/01/19 10:01:04;;;;;;;59.47;31.27;;;;;;;;;;5047203;28;20220;-72
2022/01/19 10:03:31;;;;;;;64.07;30.53;;;;;;;;;;5046838;28;20205;-70
2022/01/19 10:06:16;;;;;;;54.67;30.53;;;;;;;;;;5045378;28;20201;-71
2022/01/19 10:08:45;;;;;;;56.43;29.63;;;;;;;;;;5041703;28;20185;-69
2022/01/19 10:11:12;;;;;;;53.83;30.70;;;;;;;;;;5047491;28;20224;-70
2022/01/19 10:19:20;;;;;;;60.67;30.03;;;;;;;;;;5045435;28;20213;-70
2022/01/19 10:22:14;;;;;;;51.40;29.57;;;;;;;;;;5028175;28;20198;-70
2022/01/19 10:25:04;;;;;;;52.87;29.40;;;;;;;;;;5025507;28;20231;-71
2022/01/19 10:27:32;;;;;;;54.87;29.77;;;;;;;;;;5048970;28;20209;-70
2022/01/19 10:29:57;;;;;;;49.90;29.07;;;;;;;;;;5046620;28;20209;-70
2022/01/19 10:32:23;;;;;;;56.10;31.13;;;;;;;;;;5049038;28;20221;-70
2022/01/19 10:34:48;;;;;;;51.47;28.30;;;;;;;;;;5048627;28;20425;-71
2022/01/19 10:37:20;;;;;;;49.43;28.03;;;;;;;;;;5047517;28;20181;-70
2022/01/19 10:39:48;;;;;;;50.00;28.00;;;;;;;;;;5049440;28;20605;-70
2022/01/19 10:42:15;;;;;;;55.03;29.97;;;;;;;;;;5039289;28;20197;-71
2022/01/19 10:44:49;;;;;;;47.87;29.20;;;;;;;;;;5062770;28;20228;-68
2022/01/19 10:47:17;;;;;;;47.23;28.63;;;;;;;;;;5051871;28;20181;-71
2022/01/19 10:49:55;;;;;;;47.73;27.20;;;;;;;;;;5047147;28;20600;-69
2022/01/19 10:52:31;;;;;;;48.03;28.40;;;;;;;;;;5050207;28;20611;-69
2022/01/19 10:54:58;;;;;;;47.37;28.10;;;;;;;;;;5046206;28;20682;-70
2022/01/19 10:57:24;;;;;;;46.23;26.73;;;;;;;;;;5050492;28;20273;-70
2022/01/19 10:59:50;;;;;;;52.67;30.20;;;;;;;;;;5029861;28;20273;-72
2022/01/19 11:02:16;;;;;;;50.37;29.10;;;;;;;;;;5048897;28;20354;-69
2022/01/19 11:04:42;;;;;;;45.20;26.70;;;;;;;;;;5051910;28;20741;-69
2022/01/19 11:07:08;;;;;;;52.00;30.10;;;;;;;;;;5036434;28;20243;-69
2022/01/19 11:09:35;;;;;;;45.13;27.37;;;;;;;;;;5052903;28;20638;-70
2022/01/19 11:12:04;;;;;;;52.40;29.20;;;;;;;;;;5035967;28;20276;-70
2022/01/19 11:14:30;;;;;;;51.97;30.67;;;;;;;;;;5052043;28;20655;-71
2022/01/19 11:16:55;;;;;;;48.13;28.83;;;;;;;;;;5051511;28;20210;-71
2022/01/19 11:19:21;;;;;;;45.67;28.37;;;;;;;;;;5059866;28;20264;-71
2022/01/19 11:22:05;;;;;;;53.60;27.80;;;;;;;;;;5048649;28;20276;-71
2022/01/19 11:24:48;;;;;;;50.27;27.97;;;;;;;;;;5050969;28;20216;-71
2022/01/19 11:27:14;;;;;;;45.00;27.87;;;;;;;;;;5050085;28;20178;-69
2022/01/19 11:29:40;;;;;;;51.50;28.47;;;;;;;;;;5052665;28;20169;-69
2022/01/19 11:32:16;;;;;;;49.20;29.07;;;;;;;;;;5034233;28;20216;-69
2022/01/19 11:34:46;;;;;;;43.77;28.00;;;;;;;;;;5050847;28;20177;-69
2022/01/19 11:37:12;;;;;;;48.60;28.70;;;;;;;;;;5051081;28;20181;-69
2022/01/19 11:39:57;;;;;;;42.93;26.73;;;;;;;;;;5051799;28;20311;-70
2022/01/19 11:42:23;;;;;;;45.93;26.00;;;;;;;;;;5048686;28;20243;-69
2022/01/19 11:44:51;;;;;;;42.70;26.67;;;;;;;;;;5048386;28;20198;-69
2022/01/19 11:47:18;;;;;;;38.90;26.03;;;;;;;;;;5052150;28;20197;-70
2022/01/19 11:49:50;;;;;;;44.63;27.27;;;;;;;;;;5051057;28;20203;-70
2022/01/19 11:52:18;;;;;;;43.70;26.93;;;;;;;;;;5052740;28;20209;-70
2022/01/19 11:54:44;;;;;;;48.57;26.37;;;;;;;;;;5050662;28;20177;-70
2022/01/19 11:57:11;;;;;;;38.93;24.90;;;;;;;;;;5050069;28;20170;-70
2022/01/19 11:59:48;;;;;;;36.50;25.20;;;;;;;;;;5050919;28;20188;-71
2022/01/19 12:02:33;;;;;;;43.37;25.37;;;;;;;;;;5049663;28;20205;-70
2022/01/19 12:04:58;;;;;;;37.67;24.17;;;;;;;;;;5030525;28;20735;-69
2022/01/19 12:07:38;;;;;;;40.17;26.20;;;;;;;;;;5046394;28;21043;-70
2022/01/19 12:10:04;;;;;;;38.23;25.20;;;;;;;;;;5046205;28;20501;-70
2022/01/19 12:12:34;;;;;;;44.37;23.97;;;;;;;;;;5048831;28;20717;-69
2022/01/19 12:15:04;;;;;;;42.77;26.33;;;;;;;;;;5048996;28;20180;-69
2022/01/19 12:17:52;;;;;;;39.43;25.57;;;;;;;;;;5049922;28;20178;-69
2022/01/19 12:20:35;;;;;;;40.07;26.70;;;;;;;;;;5047752;28;20177;-69
2022/01/19 12:23:20;;;;;;;41.40;25.93;;;;;;;;;;5049007;28;20204;-69
2022/01/19 12:25:55;;;;;;;44.70;26.07;;;;;;;;;;5048939;28;20228;-69
2022/01/19 12:28:39;;;;;;;42.17;24.03;;;;;;;;;;5049251;28;20178;-70
2022/01/19 12:31:23;;;;;;;39.67;25.27;;;;;;;;;;5025315;28;20213;-69
2022/01/19 12:34:07;;;;;;;43.13;27.17;;;;;;;;;;5043600;28;20279;-69
2022/01/19 12:36:52;;;;;;;43.43;25.70;;;;;;;;;;5030236;28;20736;-69
2022/01/19 12:39:28;;;;;;;39.67;25.63;;;;;;;;;;5047478;28;20252;-69
2022/01/19 12:41:53;;;;;;;39.13;23.93;;;;;;;;;;5047275;28;20237;-71
2022/01/19 12:44:37;;;;;;;39.85;25.52;;;;;;;;;;5048040;28;20197;-69
2022/01/19 12:47:03;;;;;;;38.63;26.33;;;;;;;;;;5051679;28;20173;-70
2022/01/19 12:49:29;;;;;;;36.37;24.43;;;;;;;;;;5030687;28;20177;-71
2022/01/19 12:51:55;;;;;;;39.03;25.03;;;;;;;;;;5058439;22;21117;-71
2022/01/19 12:54:27;;;;;;;44.87;28.07;;;;;;;;;;5028611;28;20189;-70
2022/01/19 12:56:57;;;;;;;41.57;25.47;;;;;;;;;;5029474;28;20223;-70
2022/01/19 12:59:23;;;;;;;38.30;24.87;;;;;;;;;;5008806;28;20191;-71
2022/01/19 13:01:48;;;;;;;38.07;24.77;;;;;;;;;;5012878;28;20213;-71
2022/01/19 13:04:27;;;;;;;41.47;24.73;;;;;;;;;;5027491;28;20621;-71
2022/01/19 13:06:55;;;;;;;37.40;23.63;;;;;;;;;;5030588;28;20195;-71
2022/01/19 13:09:28;;;;;;;34.57;22.77;;;;;;;;;;5029528;28;20628;-70
2022/01/19 13:11:55;;;;;;;39.60;22.87;;;;;;;;;;5028769;28;20467;-70
2022/01/19 13:14:23;;;;;;;36.60;23.53;;;;;;;;;;5029605;28;20776;-70
2022/01/19 13:16:51;;;;;;;38.03;23.53;;;;;;;;;;5025195;28;20175;-69
2022/01/19 13:19:18;;;;;;;35.00;22.03;;;;;;;;;;5022709;28;20185;-69
2022/01/19 13:21:44;;;;;;;40.70;21.77;;;;;;;;;;5004285;28;20206;-70
2022/01/19 13:24:34;;;;;;;38.93;22.57;;;;;;;;;;5018850;28;20194;-69
2022/01/19 13:26:59;;;;;;;39.70;23.37;;;;;;;;;;5020244;28;20189;-70
2022/01/19 13:29:28;;;;;;;38.40;22.77;;;;;;;;;;5030237;28;20174;-71
2022/01/19 13:31:54;;;;;;;38.13;23.10;;;;;;;;;;5010684;28;20289;-71
2022/01/19 13:34:19;;;;;;;41.73;22.70;;;;;;;;;;5029724;28;20194;-70
2022/01/19 13:36:51;;;;;;;37.40;24.60;;;;;;;;;;5029034;28;20266;-70
2022/01/19 13:39:19;;;;;;;38.33;24.33;;;;;;;;;;5025495;28;20575;-70
2022/01/19 13:41:44;;;;;;;36.03;23.53;;;;;;;;;;5008433;28;20664;-70
2022/01/19 13:44:11;;;;;;;37.53;23.43;;;;;;;;;;5027104;28;20179;-70
2022/01/19 13:46:39;;;;;;;35.23;22.37;;;;;;;;;;5028340;28;20180;-71
2022/01/19 13:49:05;;;;;;;36.40;21.97;;;;;;;;;;5026855;28;20177;-70
2022/01/19 13:51:31;;;;;;;42.93;23.07;;;;;;;;;;5030538;28;20166;-71
2022/01/19 13:54:00;;;;;;;42.67;23.47;;;;;;;;;;5026276;28;20564;-71
2022/01/19 13:56:28;;;;;;;36.23;23.83;;;;;;;;;;5012763;28;20186;-70
2022/01/19 13:58:55;;;;;;;36.87;23.13;;;;;;;;;;5029310;28;20189;-71
2022/01/19 14:01:32;;;;;;;39.00;22.27;;;;;;;;;;5026671;28;20182;-71
2022/01/19 14:04:03;;;;;;;35.47;20.90;;;;;;;;;;5027584;28;20220;-71
2022/01/19 14:06:30;;;;;;;43.50;23.33;;;;;;;;;;5028764;28;20206;-71
2022/01/19 14:09:08;;;;;;;35.17;19.90;;;;;;;;;;5029418;28;20202;-70
2022/01/19 14:11:33;;;;;;;38.93;22.93;;;;;;;;;;5030600;28;20185;-71
2022/01/19 14:13:59;;;;;;;36.80;22.80;;;;;;;;;;5029368;28;20179;-71
2022/01/19 14:16:36;;;;;;;32.03;20.67;;;;;;;;;;5030018;28;20182;-71
2022/01/19 14:19:04;;;;;;;37.57;21.43;;;;;;;;;;5009442;28;20705;-71
2022/01/19 14:21:29;;;;;;;36.43;21.60;;;;;;;;;;5012263;28;20189;-71
2022/01/19 14:23:58;;;;;;;39.33;21.30;;;;;;;;;;5027364;28;20186;-71
2022/01/19 14:26:23;;;;;;;31.53;20.10;;;;;;;;;;5007237;28;20210;-70
2022/01/19 14:29:08;;;;;;;37.00;20.73;;;;;;;;;;5026164;28;20224;-71
2022/01/19 14:31:33;;;;;;;40.83;22.30;;;;;;;;;;5023826;28;20217;-71
2022/01/19 14:33:58;;;;;;;36.93;20.60;;;;;;;;;;5030168;28;20198;-71
2022/01/19 14:36:23;;;;;;;36.63;20.43;;;;;;;;;;5026894;28;20194;-71
2022/01/19 14:38:54;;;;;;;34.33;19.20;;;;;;;;;;5030628;28;20258;-71
2022/01/19 14:41:26;;;;;;;41.60;20.87;;;;;;;;;;5029997;28;20174;-71
2022/01/19 14:43:58;;;;;;;44.40;20.00;;;;;;;;;;5025440;28;20296;-71
2022/01/19 14:46:36;;;;;;;32.33;19.37;;;;;;;;;;5011993;28;20218;-71
2022/01/19 14:49:01;;;;;;;37.97;20.03;;;;;;;;;;5028282;28;20178;-70
2022/01/19 14:51:30;;;;;;;40.40;21.90;;;;;;;;;;5025763;28;20182;-71
2022/01/19 14:53:59;;;;;;;34.33;19.00;;;;;;;;;;5025371;28;20217;-71
2022/01/19 14:56:25;;;;;;;37.17;21.50;;;;;;;;;;5025333;28;20198;-71
2022/01/19 14:59:07;;;;;;;42.43;19.67;;;;;;;;;;5033539;28;20174;-71
2022/01/19 15:01:34;;;;;;;40.50;20.40;;;;;;;;;;5020080;28;20193;-71
2022/01/19 15:03:59;;;;;;;44.33;21.13;;;;;;;;;;5025416;28;20178;-71
2022/01/19 15:06:25;;;;;;;37.17;19.93;;;;;;;;;;5030029;28;20247;-72
2022/01/19 15:08:50;;;;;;;39.97;19.83;;;;;;;;;;5012596;28;20660;-71
2022/01/19 15:11:16;;;;;;;36.20;19.63;;;;;;;;;;5028937;28;20539;-71
2022/01/19 15:13:42;;;;;;;38.00;21.67;;;;;;;;;;5030001;28;20296;-71
2022/01/19 15:16:07;;;;;;;38.37;20.00;;;;;;;;;;5027350;28;20821;-70
2022/01/19 15:18:32;;;;;;;34.77;19.50;;;;;;;;;;5009017;28;20182;-71
2022/01/19 15:20:57;;;;;;;38.33;20.93;;;;;;;;;;5029028;28;20224;-71
2022/01/19 15:23:23;;;;;;;41.70;20.17;;;;;;;;;;5010209;28;20217;-72
2022/01/19 15:25:48;;;;;;;40.47;20.07;;;;;;;;;;5029782;28;20762;-70
2022/01/19 15:28:13;;;;;;;41.30;20.20;;;;;;;;;;5024555;28;20610;-71
2022/01/19 15:30:40;;;;;;;43.40;20.00;;;;;;;;;;5019394;28;20515;-71
2022/01/19 15:33:06;;;;;;;33.20;19.47;;;;;;;;;;5011909;28;20277;-71
2022/01/19 15:35:32;;;;;;;36.83;21.97;;;;;;;;;;5024679;28;20179;-72
2022/01/19 15:37:57;;;;;;;43.13;20.00;;;;;;;;;;5030677;28;20182;-72
2022/01/19 15:40:26;;;;;;;37.33;20.73;;;;;;;;;;5027968;28;20209;-71
2022/01/19 15:42:52;;;;;;;33.80;19.63;;;;;;;;;;5026626;28;20276;-71
2022/01/19 15:45:18;;;;;;;38.53;19.90;;;;;;;;;;5029441;28;20210;-71